Time;durP1;ratioP1;P1;durP2;ratioP2;P2;SDS_P1;SDS_P2;PMS_P1;PMS_P2;Temp;Humidity;BMP_temperature;BMP_pressure;BME280_temperature;BME280_humidity;BME280_pressure;Samples;Min_cycle;Max_cycle;Signal;HPM_P1;HPM_P2
2024/03/03 00:02:22;;;;;;;10.38;9.27;;;;;;;30.60;68.73;101113.81;5059523;28;65567;-33
2024/03/03 00:04:53;;;;;;;13.25;9.40;;;;;;;30.56;68.73;101114.44;5057804;28;69992;-33
2024/03/03 00:07:24;;;;;;;14.73;9.77;;;;;;;30.60;68.97;101112.97;5059093;28;66328;-33
2024/03/03 00:09:54;;;;;;;12.20;10.05;;;;;;;30.57;68.97;101111.53;5056894;28;70324;-33
2024/03/03 00:12:25;;;;;;;12.80;9.50;;;;;;;30.59;69.08;101117.56;5057539;28;65808;-34
2024/03/03 00:14:55;;;;;;;12.38;10.38;;;;;;;30.59;68.99;101114.84;5058822;28;70171;-33
2024/03/03 00:17:26;;;;;;;11.77;10.43;;;;;;;30.58;69.11;101107.75;5059273;28;66182;-33
2024/03/03 00:19:57;;;;;;;10.05;9.15;;;;;;;30.57;69.23;101111.53;5054826;28;69827;-33
2024/03/03 00:22:27;;;;;;;12.95;9.60;;;;;;;30.56;68.94;101112.53;5058039;28;66613;-33
2024/03/03 00:24:58;;;;;;;16.80;9.77;;;;;;;30.58;69.55;101115.88;5054851;28;69823;-33
2024/03/03 00:27:30;;;;;;;12.80;9.48;;;;;;;30.54;68.82;101114.66;5043545;28;66266;-33
2024/03/03 00:30:01;;;;;;;10.77;9.50;;;;;;;30.56;68.63;101112.53;5051546;28;70663;-33
2024/03/03 00:32:32;;;;;;;11.25;10.02;;;;;;;30.59;68.98;101117.56;5058112;28;66601;-31
2024/03/03 00:35:02;;;;;;;10.38;9.38;;;;;;;30.57;69.22;101121.53;5055975;28;70517;-30
2024/03/03 00:37:33;;;;;;;10.32;9.30;;;;;;;30.57;69.03;101116.09;5056180;28;66911;-30
2024/03/03 00:40:03;;;;;;;12.57;9.68;;;;;;;30.57;69.00;101127.75;5046626;28;70595;-35
2024/03/03 00:42:34;;;;;;;14.43;10.38;;;;;;;30.59;69.08;101122.13;5056095;28;67388;-30
2024/03/03 00:45:06;;;;;;;13.00;9.85;;;;;;;30.60;68.88;101121.91;5056971;28;70750;-30
2024/03/03 00:47:36;;;;;;;14.88;9.60;;;;;;;30.56;69.17;101127.97;5055667;28;66097;-31
2024/03/03 00:50:08;;;;;;;10.95;9.82;;;;;;;30.59;69.15;101133.81;5054880;28;71093;-30
2024/03/03 00:52:39;;;;;;;11.32;9.25;;;;;;;30.58;68.78;101126.72;5057582;28;66254;-31
2024/03/03 00:55:10;;;;;;;13.47;10.53;;;;;;;30.64;69.57;101136.69;5057536;28;70434;-30
2024/03/03 00:57:41;;;;;;;18.07;10.33;;;;;;;30.66;69.61;101134.59;5058052;28;65509;-31
2024/03/03 01:00:12;;;;;;;11.77;10.30;;;;;;;30.64;70.65;101136.69;5070052;28;70879;-30
2024/03/03 01:02:43;;;;;;;19.02;11.45;;;;;;;30.66;70.32;101139.19;5069508;28;65981;-30
2024/03/03 01:05:14;;;;;;;22.42;11.82;;;;;;;30.69;70.17;101141.47;5055033;28;71529;-33
2024/03/03 01:07:45;;;;;;;31.85;12.73;;;;;;;30.70;69.24;101143.13;5072640;28;66651;-30
2024/03/03 01:10:15;;;;;;;19.20;12.88;;;;;;;30.70;69.14;101138.56;5055569;28;71063;-30
2024/03/03 01:12:46;;;;;;;32.25;13.77;;;;;;;30.71;69.25;101147.50;5056007;28;66287;-30
2024/03/03 01:15:18;;;;;;;27.70;13.73;;;;;;;30.65;69.91;101137.53;5057281;28;70678;-31
2024/03/03 01:17:48;;;;;;;20.80;13.13;;;;;;;30.66;69.98;101140.03;5056306;28;64931;-31
2024/03/03 01:20:19;;;;;;;25.63;11.73;;;;;;;30.71;70.29;101145.63;5053176;28;70417;-30
2024/03/03 01:22:50;;;;;;;22.38;12.30;;;;;;;30.72;70.34;101155.41;5058937;28;65636;-30
2024/03/03 01:25:20;;;;;;;21.85;12.15;;;;;;;30.73;70.29;101156.28;5057516;28;70672;-30
2024/03/03 01:27:52;;;;;;;15.73;11.15;;;;;;;30.78;70.81;101163.72;5039268;28;66131;-31
2024/03/03 01:30:23;;;;;;;18.92;11.38;;;;;;;30.79;70.91;101160.00;5052203;28;70067;-30
2024/03/03 01:32:54;;;;;;;16.33;11.18;;;;;;;30.80;70.87;101167.94;5060693;28;65719;-30
2024/03/03 01:35:25;;;;;;;19.33;11.15;;;;;;;30.84;70.02;101169.19;5061452;28;70363;-33
2024/03/03 01:37:56;;;;;;;16.25;11.25;;;;;;;30.84;69.91;101168.31;5058579;28;66198;-30
2024/03/03 01:40:27;;;;;;;17.13;11.32;;;;;;;30.81;70.61;101174.16;5057859;28;70053;-30
2024/03/03 01:42:58;;;;;;;17.90;10.85;;;;;;;30.85;69.93;101175.41;5059295;28;66570;-30
2024/03/03 01:45:30;;;;;;;15.07;10.73;;;;;;;30.88;70.40;101175.00;5048737;28;69782;-30
2024/03/03 01:48:01;;;;;;;14.73;10.57;;;;;;;30.88;70.25;101169.56;5060285;28;66495;-30
2024/03/03 01:50:32;;;;;;;;;;;;;;;30.82;70.82;101175.84;5074101;28;70017;-34
2024/03/03 01:53:03;;;;;;;12.07;9.70;;;;;;;30.95;69.72;101181.19;5056391;28;65453;-30
2024/03/03 01:55:34;;;;;;;14.93;10.00;;;;;;;30.97;69.77;101179.13;5063078;28;71154;-30
2024/03/03 01:58:08;;;;;;;11.25;10.13;;;;;;;30.80;69.58;101142.72;5059369;28;66654;-31
2024/03/03 02:00:39;;;;;;;12.68;10.48;;;;;;;30.99;69.66;101176.22;5059439;28;69425;-30
2024/03/03 02:03:10;;;;;;;10.88;9.70;;;;;;;31.01;69.51;101184.94;5059620;28;66540;-31
2024/03/03 02:05:42;;;;;;;14.63;10.68;;;;;;;31.00;69.07;101177.88;5061210;28;69361;-32
2024/03/03 02:08:14;;;;;;;11.05;10.02;;;;;;;31.03;69.30;101175.53;5059940;28;66885;-31
2024/03/03 02:10:45;;;;;;;;;;;;;;;30.90;70.48;101178.31;5059509;28;70122;-29
2024/03/03 02:13:16;;;;;;;10.80;9.93;;;;;;;31.04;69.35;101179.94;5061886;28;65987;-31
2024/03/03 02:15:47;;;;;;;13.80;9.70;;;;;;;31.08;69.34;101183.88;5058792;28;70099;-29
2024/03/03 02:18:18;;;;;;;10.05;9.10;;;;;;;31.12;68.81;101187.84;5061219;28;66857;-30
2024/03/03 02:20:49;;;;;;;10.15;9.05;;;;;;;31.15;68.88;101190.09;5058196;28;70512;-29
2024/03/03 02:23:19;;;;;;;11.93;9.43;;;;;;;31.15;68.89;101179.28;5059353;28;66398;-30
2024/03/03 02:25:51;;;;;;;9.65;8.77;;;;;;;31.15;68.91;101186.56;5058582;28;70306;-30
2024/03/03 02:28:24;;;;;;;14.70;9.77;;;;;;;31.21;68.43;101193.00;5043006;28;66647;-31
2024/03/03 02:30:55;;;;;;;12.20;9.27;;;;;;;31.20;68.77;101194.03;5059970;28;69761;-31
2024/03/03 02:33:26;;;;;;;9.95;8.77;;;;;;;31.23;68.60;101196.31;5059843;28;66018;-30
2024/03/03 02:35:57;;;;;;;10.07;8.73;;;;;;;31.25;68.70;101199.66;5048459;28;70161;-30
2024/03/03 02:38:28;;;;;;;9.32;8.55;;;;;;;31.26;68.79;101187.75;5056946;28;66672;-30
2024/03/03 02:40:58;;;;;;;14.98;9.60;;;;;;;31.13;69.11;101173.22;5058923;28;69913;-32
2024/03/03 02:43:29;;;;;;;11.90;10.07;;;;;;;31.34;69.02;101182.09;5056600;28;65765;-31
2024/03/03 02:46:00;;;;;;;13.13;9.85;;;;;;;31.33;68.69;101183.97;5058370;28;70261;-30
2024/03/03 02:48:31;;;;;;;11.20;10.07;;;;;;;31.37;69.25;101178.97;5059221;28;66107;-30
2024/03/03 02:51:01;;;;;;;16.50;10.30;;;;;;;31.43;68.92;101177.28;5056235;28;69414;-30
2024/03/03 02:53:32;;;;;;;14.95;10.70;;;;;;;31.43;68.87;101178.13;5058166;28;65937;-29
2024/03/03 02:56:03;;;;;;;14.60;10.27;;;;;;;31.46;69.15;101185.81;5053989;28;70010;-30
2024/03/03 02:58:34;;;;;;;11.98;10.13;;;;;;;31.46;68.61;101177.69;5055292;28;66548;-31
2024/03/03 03:01:04;;;;;;;11.73;10.38;;;;;;;31.48;69.30;101181.03;5048442;28;69531;-31
2024/03/03 03:03:36;;;;;;;18.13;10.63;;;;;;;31.50;69.10;101181.59;5040140;28;66316;-30
2024/03/03 03:06:09;;;;;;;20.67;12.27;;;;;;;31.46;68.96;101166.00;5056410;28;69872;-31
2024/03/03 03:08:40;;;;;;;13.93;10.68;;;;;;;31.56;69.26;101169.88;5058767;28;66023;-31
2024/03/03 03:11:13;;;;;;;15.85;10.45;;;;;;;31.56;69.54;101161.75;5057213;28;70456;-32
2024/03/03 03:13:44;;;;;;;17.60;10.80;;;;;;;31.59;69.74;101161.34;5058940;28;66324;-31
2024/03/03 03:16:14;;;;;;;23.45;10.63;;;;;;;31.63;69.71;101152.78;5056697;28;70366;-31
2024/03/03 03:18:46;;;;;;;14.93;11.07;;;;;;;31.66;70.21;101157.75;5056536;28;66494;-31
2024/03/03 03:21:17;;;;;;;11.32;10.13;;;;;;;31.70;69.96;101139.97;5056993;28;70071;-31
2024/03/03 03:23:47;;;;;;;17.20;10.35;;;;;;;31.74;69.85;101152.88;5059921;28;65932;-31
2024/03/03 03:26:18;;;;;;;14.63;10.38;;;;;;;31.76;70.22;101141.78;5057275;28;69431;-30
2024/03/03 03:28:49;;;;;;;23.92;12.05;;;;;;;31.82;69.88;101140.94;5058548;28;66086;-31
2024/03/03 03:31:20;;;;;;;23.80;10.50;;;;;;;31.82;70.34;101140.94;5060940;28;70152;-33
2024/03/03 03:33:51;;;;;;;32.92;10.73;;;;;;;31.89;70.63;101130.84;5056951;28;66950;-31
2024/03/03 03:36:22;;;;;;;18.27;10.80;;;;;;;31.89;70.75;101119.19;5058566;28;69912;-32
2024/03/03 03:38:53;;;;;;;14.00;10.70;;;;;;;31.93;71.01;101126.69;5051222;28;66283;-31
2024/03/03 03:41:23;;;;;;;13.85;9.85;;;;;;;31.96;70.95;101112.69;5056813;28;70001;-31
2024/03/03 03:43:54;;;;;;;18.02;11.48;;;;;;;31.95;70.39;101105.56;5051875;28;67408;-30
2024/03/03 03:46:25;;;;;;;11.73;10.43;;;;;;;32.03;70.59;101097.16;5055154;28;71501;-30
2024/03/03 03:48:56;;;;;;;17.50;11.98;;;;;;;32.02;70.81;101100.09;5058196;28;66454;-31
2024/03/03 03:51:26;;;;;;;28.05;11.57;;;;;;;32.09;70.49;101095.44;5057209;28;70659;-35
2024/03/03 03:53:58;;;;;;;15.63;11.23;;;;;;;32.11;70.79;101097.94;5056493;28;66543;-31
2024/03/03 03:56:29;;;;;;;20.50;11.85;;;;;;;32.13;70.43;101090.41;5055808;28;70563;-31
2024/03/03 03:59:00;;;;;;;26.65;12.10;;;;;;;32.14;70.59;101081.19;5057742;28;66555;-31
2024/03/03 04:01:31;;;;;;;20.93;12.57;;;;;;;32.15;70.82;101082.84;5057432;28;69503;-35
2024/03/03 04:04:02;;;;;;;23.58;13.00;;;;;;;32.16;70.76;101079.09;5058078;28;66243;-31
2024/03/03 04:06:32;;;;;;;23.95;12.57;;;;;;;32.15;70.69;101072.00;5057467;28;69982;-32
2024/03/03 04:09:04;;;;;;;21.20;11.70;;;;;;;32.21;70.45;101071.13;5057532;28;66437;-31
2024/03/03 04:11:35;;;;;;;19.23;12.57;;;;;;;32.20;70.81;101069.44;5058707;28;70065;-33
2024/03/03 04:14:06;;;;;;;22.00;12.80;;;;;;;32.23;70.41;101052.69;5055051;28;65754;-31
2024/03/03 04:16:37;;;;;;;17.80;12.37;;;;;;;32.32;69.83;101045.94;5055760;28;71352;-31
2024/03/03 04:19:07;;;;;;;22.17;12.27;;;;;;;32.34;70.15;101042.97;5057613;28;66506;-32
2024/03/03 04:21:42;;;;;;;22.65;13.32;;;;;;;32.37;69.94;101037.91;5056760;28;69709;-31
2024/03/03 04:24:13;;;;;;;24.33;12.48;;;;;;;32.38;70.07;101028.72;5056436;28;65836;-32
2024/03/03 04:26:44;;;;;;;41.65;19.58;;;;;;;32.38;70.01;101028.72;5052929;28;70711;-31
2024/03/03 04:29:14;;;;;;;41.17;21.08;;;;;;;32.45;70.86;101024.03;5057889;28;66965;-34
2024/03/03 04:31:46;;;;;;;30.77;18.88;;;;;;;32.45;70.86;101010.47;5056215;28;70898;-33
2024/03/03 04:34:17;;;;;;;32.05;18.52;;;;;;;32.47;71.15;101008.38;5056990;28;66019;-32
2024/03/03 04:36:47;;;;;;;29.02;16.48;;;;;;;32.53;71.14;101009.34;5057321;28;69700;-32
2024/03/03 04:39:19;;;;;;;33.53;16.90;;;;;;;32.55;71.26;101001.00;5058613;28;65956;-32
2024/03/03 04:41:49;;;;;;;33.75;19.15;;;;;;;32.59;71.26;100996.75;5058349;28;69858;-32
2024/03/03 04:44:20;;;;;;;31.38;16.90;;;;;;;32.59;71.42;100996.75;5057771;28;65923;-31
2024/03/03 04:46:51;;;;;;;32.60;15.65;;;;;;;32.64;71.41;100984.13;5058651;28;69535;-31
2024/03/03 04:49:22;;;;;;;37.30;15.05;;;;;;;32.61;71.47;100970.19;5058497;28;66318;-32
2024/03/03 04:51:52;;;;;;;28.88;14.90;;;;;;;32.71;70.94;100975.91;5056778;28;70394;-32
2024/03/03 04:54:23;;;;;;;30.58;14.77;;;;;;;32.70;70.95;100972.34;5058095;28;66504;-32
2024/03/03 04:56:54;;;;;;;23.27;15.05;;;;;;;32.57;71.18;100944.53;5062362;28;70498;-30
2024/03/03 04:59:25;;;;;;;29.02;13.38;;;;;;;32.73;70.68;100960.19;5060370;28;66047;-31
2024/03/03 05:01:55;;;;;;;39.58;14.35;;;;;;;32.77;70.34;100958.69;5061874;28;70326;-30
2024/03/03 05:04:27;;;;;;;37.13;14.02;;;;;;;32.76;70.09;100948.88;5058917;28;66172;-32
2024/03/03 05:06:59;;;;;;;29.55;14.55;;;;;;;32.78;70.11;100946.75;5058861;28;70189;-31
2024/03/03 05:09:29;;;;;;;;;;;;;;;32.72;69.94;100947.69;5061867;28;66288;-32
2024/03/03 05:12:00;;;;;;;25.50;14.02;;;;;;;32.84;69.43;100939.56;5059973;28;70386;-33
2024/03/03 05:14:30;;;;;;;22.83;13.55;;;;;;;32.83;69.49;100938.75;5060304;28;65551;-31
2024/03/03 05:17:01;;;;;;;19.33;13.20;;;;;;;32.77;68.97;100923.38;5042993;28;69430;-30
2024/03/03 05:19:32;;;;;;;30.45;14.40;;;;;;;32.87;68.95;100923.63;5061214;28;66842;-32
2024/03/03 05:22:03;;;;;;;21.25;14.55;;;;;;;32.85;68.77;100925.75;5059410;28;70721;-30
2024/03/03 05:24:35;;;;;;;15.87;13.07;;;;;;;32.91;68.47;100913.13;5060649;28;66403;-31
2024/03/03 05:27:06;;;;;;;19.23;14.00;;;;;;;32.95;68.46;100911.59;5061875;28;70311;-32
2024/03/03 05:29:37;;;;;;;26.92;13.88;;;;;;;32.96;68.28;100901.53;5046724;28;66768;-31
2024/03/03 05:32:09;;;;;;;21.02;14.45;;;;;;;33.00;68.18;100906.31;5059019;28;70169;-32
2024/03/03 05:34:40;;;;;;;24.60;14.15;;;;;;;33.05;68.11;100901.00;5060957;28;65812;-32
2024/03/03 05:37:11;;;;;;;19.85;14.63;;;;;;;33.07;68.22;100889.88;5058551;28;70901;-31
2024/03/03 05:39:42;;;;;;;16.57;13.97;;;;;;;33.04;68.28;100887.66;5056358;28;67273;-30
2024/03/03 05:42:13;;;;;;;26.10;13.60;;;;;;;33.08;68.25;100888.84;5058702;28;71605;-32
2024/03/03 05:44:44;;;;;;;20.90;14.18;;;;;;;33.13;68.23;100878.91;5060845;28;66207;-31
2024/03/03 05:47:15;;;;;;;19.90;14.07;;;;;;;33.14;68.23;100868.88;5057889;28;69091;-31
2024/03/03 05:49:49;;;;;;;28.35;13.48;;;;;;;33.10;68.58;100867.69;5058221;28;65411;-31
2024/03/03 05:52:20;;;;;;;20.15;13.63;;;;;;;33.07;67.08;100869.00;5051232;28;69771;-33
2024/03/03 05:54:51;;;;;;;16.50;12.70;;;;;;;32.98;65.44;100864.09;5060914;28;66292;-31
2024/03/03 05:57:22;;;;;;;25.08;13.55;;;;;;;32.87;64.67;100850.25;5058026;28;69597;-33
2024/03/03 05:59:52;;;;;;;22.83;13.13;;;;;;;32.71;63.98;100826.53;5060174;28;67766;-31
2024/03/03 06:02:23;;;;;;;17.60;13.03;;;;;;;32.79;62.55;100842.47;5060475;28;70133;-34
2024/03/03 06:04:54;;;;;;;38.17;12.87;;;;;;;32.76;61.87;100845.63;5058933;28;66670;-31
2024/03/03 06:07:25;;;;;;;31.75;11.80;;;;;;;32.71;60.68;100845.53;5059293;28;70263;-32
2024/03/03 06:09:56;;;;;;;20.10;11.90;;;;;;;32.68;59.69;100844.13;5060011;28;66551;-32
2024/03/03 06:12:27;;;;;;;22.10;11.45;;;;;;;32.61;59.35;100839.84;5055143;28;70723;-32
2024/03/03 06:14:58;;;;;;;26.98;11.48;;;;;;;32.49;58.41;100827.06;5060308;28;66456;-31
2024/03/03 06:17:29;;;;;;;27.98;10.70;;;;;;;32.52;57.25;100828.50;5059713;28;70663;-30
2024/03/03 06:20:00;;;;;;;19.73;11.95;;;;;;;32.43;59.21;100814.41;5057613;28;65243;-30
2024/03/03 06:22:31;;;;;;;31.73;13.20;;;;;;;32.49;60.52;100808.06;5059321;28;70070;-30
2024/03/03 06:25:01;;;;;;;24.77;14.63;;;;;;;32.41;59.30;100805.66;5056866;28;66478;-30
2024/03/03 06:27:33;;;;;;;22.75;12.93;;;;;;;32.47;59.46;100806.63;5060919;28;70708;-32
2024/03/03 06:30:04;;;;;;;25.10;14.17;;;;;;;32.44;58.29;100802.47;5059822;28;65488;-31
2024/03/03 06:32:35;;;;;;;;;;;;;;;32.26;56.27;100799.81;5057160;28;69597;-30
2024/03/03 06:35:06;;;;;;;16.85;12.02;;;;;;;32.36;57.94;100797.38;5047453;28;66020;-31
2024/03/03 06:37:37;;;;;;;24.73;11.95;;;;;;;32.29;57.03;100791.22;5058537;28;69152;-30
2024/03/03 06:40:09;;;;;;;31.92;10.95;;;;;;;32.32;56.54;100779.06;5058335;28;66244;-33
2024/03/03 06:42:41;;;;;;;22.45;12.15;;;;;;;32.26;56.40;100769.97;5051685;28;68583;-33
2024/03/03 06:45:12;;;;;;;14.00;10.90;;;;;;;32.17;55.95;100761.31;5031329;28;66140;-31
2024/03/03 06:47:43;;;;;;;12.93;11.35;;;;;;;32.16;55.50;100765.09;5058844;28;69264;-32
2024/03/03 06:50:14;;;;;;;14.55;10.35;;;;;;;32.21;55.76;100759.81;5059499;28;66308;-33
2024/03/03 06:52:44;;;;;;;10.88;9.98;;;;;;;32.17;55.38;100755.06;5059727;28;70730;-30
2024/03/03 06:55:15;;;;;;;14.07;10.82;;;;;;;32.18;55.46;100756.72;5055250;28;67799;-32
2024/03/03 06:57:47;;;;;;;10.63;9.77;;;;;;;32.21;55.41;100756.28;5056281;28;70956;-32
2024/03/03 07:00:18;;;;;;;10.88;9.40;;;;;;;32.13;55.39;100745.75;5059545;28;65538;-31
2024/03/03 07:03:22;;;;;;;11.32;10.20;;;;;;;32.07;54.67;100744.81;5054473;28;70762;-30
2024/03/03 07:05:42;;;;;;;18.27;10.10;;;;;;;32.11;55.24;100739.72;5053546;28;65917;-34
2024/03/03 07:08:13;;;;;;;11.07;10.10;;;;;;;32.01;54.05;100730.28;5058966;28;70515;-31
2024/03/03 07:10:44;;;;;;;10.07;9.10;;;;;;;32.07;55.01;100736.66;5056278;28;66878;-30
2024/03/03 07:13:14;;;;;;;10.18;9.20;;;;;;;32.12;54.96;100731.34;5057495;28;69969;-31
2024/03/03 07:15:46;;;;;;;10.93;9.20;;;;;;;32.05;54.32;100726.03;5059518;28;66555;-32
2024/03/03 07:18:17;;;;;;;10.90;9.18;;;;;;;32.10;55.04;100724.53;5057717;28;71079;-30
2024/03/03 07:20:47;;;;;;;9.77;8.87;;;;;;;32.08;54.36;100716.59;5055930;28;67806;-31
2024/03/03 07:23:18;;;;;;;16.95;10.18;;;;;;;31.96;53.93;100713.84;5058025;28;70532;-31
2024/03/03 07:25:49;;;;;;;10.63;9.30;;;;;;;31.94;54.23;100702.41;5048466;28;65732;-31
2024/03/03 07:28:19;;;;;;;10.18;8.48;;;;;;;32.01;53.91;100707.72;5048739;28;69523;-30
2024/03/03 07:30:51;;;;;;;10.03;9.23;;;;;;;31.99;53.88;100704.44;5048241;28;66323;-31
2024/03/03 07:33:22;;;;;;;10.17;9.17;;;;;;;32.09;53.97;100714.69;5055183;28;70149;-31
2024/03/03 07:35:52;;;;;;;9.57;8.70;;;;;;;32.03;53.75;100705.59;5044683;28;66629;-31
2024/03/03 07:38:23;;;;;;;9.00;8.27;;;;;;;32.05;53.63;100693.47;5056052;28;70250;-33
2024/03/03 07:40:55;;;;;;;10.52;9.07;;;;;;;32.10;54.73;100695.50;5058530;28;66686;-31
2024/03/03 07:43:27;;;;;;;12.55;8.80;;;;;;;32.04;54.53;100691.81;5055602;28;71209;-31
2024/03/03 07:46:00;;;;;;;17.83;10.45;;;;;;;32.12;56.60;100687.09;5058219;28;65649;-31
2024/03/03 07:48:31;;;;;;;21.63;11.85;;;;;;;32.02;56.39;100688.50;5070760;28;70546;-35
2024/03/03 07:51:03;;;;;;;22.80;12.32;;;;;;;32.23;56.89;100683.56;5058959;28;66300;-34
2024/03/03 07:53:34;;;;;;;29.55;11.65;;;;;;;32.15;56.45;100687.47;5057973;28;70009;-31
2024/03/03 07:56:06;;;;;;;19.23;12.88;;;;;;;32.19;57.73;100683.22;5056283;28;67643;-31
2024/03/03 07:58:37;;;;;;;22.48;13.38;;;;;;;32.30;58.85;100676.16;5058378;28;69699;-31
2024/03/03 08:01:07;;;;;;;36.10;14.15;;;;;;;32.44;60.96;100676.75;5058831;28;66473;-33
2024/03/03 08:03:38;;;;;;;25.40;13.37;;;;;;;32.64;61.08;100676.44;5045672;28;69321;-30
2024/03/03 08:06:11;;;;;;;23.40;13.83;;;;;;;32.57;61.21;100643.97;5056745;28;67161;-30
2024/03/03 08:08:42;;;;;;;25.15;13.38;;;;;;;32.86;61.20;100677.47;5058746;28;70601;-30
2024/03/03 08:11:13;;;;;;;16.23;13.13;;;;;;;32.95;61.44;100680.63;5055377;28;66125;-30
2024/03/03 08:13:44;;;;;;;22.95;13.60;;;;;;;33.04;61.28;100694.69;5056540;28;70738;-30
2024/03/03 08:16:15;;;;;;;21.80;13.63;;;;;;;33.12;61.80;100686.19;5057540;28;66780;-31
2024/03/03 08:18:46;;;;;;;18.03;13.50;;;;;;;33.19;62.11;100691.50;5056204;28;70945;-32
2024/03/03 08:21:18;;;;;;;15.50;12.90;;;;;;;33.25;61.67;100690.53;5058167;28;66711;-32
2024/03/03 08:23:50;;;;;;;17.00;13.43;;;;;;;33.32;62.01;100692.03;5053604;28;70834;-33
2024/03/03 08:26:21;;;;;;;17.60;12.38;;;;;;;33.35;62.13;100694.28;5058190;28;67088;-33
2024/03/03 08:28:53;;;;;;;19.73;11.93;;;;;;;33.42;62.37;100690.59;5057430;28;69131;-35
2024/03/03 08:31:25;;;;;;;14.75;12.23;;;;;;;33.49;62.38;100704.84;5057561;28;67071;-32
2024/03/03 08:33:57;;;;;;;12.23;10.63;;;;;;;33.50;62.38;100698.34;5056341;28;70542;-34
2024/03/03 08:36:30;;;;;;;17.88;10.57;;;;;;;33.58;62.63;100706.97;5049399;28;66480;-32
2024/03/03 08:39:03;;;;;;;20.08;10.68;;;;;;;33.63;62.33;100702.69;5048157;28;69897;-32
2024/03/03 08:41:37;;;;;;;10.88;9.18;;;;;;;33.69;62.97;100697.13;5058707;28;66743;-31
2024/03/03 08:44:08;;;;;;;12.70;9.45;;;;;;;33.72;62.67;100695.81;5059118;28;70349;-31
2024/03/03 08:46:39;;;;;;;12.23;9.20;;;;;;;33.72;62.86;100702.06;5057204;28;66645;-30
2024/03/03 08:49:10;;;;;;;18.77;9.73;;;;;;;33.73;63.00;100692.81;5058506;28;71493;-33
2024/03/03 08:51:44;;;;;;;11.68;8.40;;;;;;;33.81;62.69;100700.59;5055193;28;66328;-31
2024/03/03 08:54:15;;;;;;;14.80;8.27;;;;;;;33.87;63.26;100706.13;5057112;28;70008;-33
2024/03/03 08:56:47;;;;;;;11.55;8.45;;;;;;;33.89;62.87;100706.72;5058191;28;66670;-32
2024/03/03 08:59:18;;;;;;;12.53;8.07;;;;;;;33.91;63.03;100710.03;5054056;28;70325;-30
2024/03/03 09:01:49;;;;;;;8.27;7.37;;;;;;;33.92;62.86;100708.94;5056985;28;66322;-30
2024/03/03 09:04:21;;;;;;;9.35;7.57;;;;;;;33.95;63.16;100701.09;5057618;28;70429;-32
2024/03/03 09:06:52;;;;;;;11.60;7.95;;;;;;;33.99;63.16;100712.31;5056618;28;66246;-33
2024/03/03 09:09:23;;;;;;;14.73;8.07;;;;;;;34.02;63.04;100711.84;5054873;28;70458;-33
2024/03/03 09:11:54;;;;;;;12.10;7.37;;;;;;;34.01;63.17;100716.44;5058270;28;66866;-33
2024/03/03 09:14:25;;;;;;;12.20;7.00;;;;;;;34.05;63.26;100713.28;5055503;28;69484;-31
2024/03/03 09:16:56;;;;;;;10.25;7.22;;;;;;;34.06;63.07;100713.03;5057824;28;66515;-30
2024/03/03 09:19:27;;;;;;;7.60;6.85;;;;;;;34.09;63.44;100707.09;5044971;28;70331;-31
2024/03/03 09:22:00;;;;;;;10.88;7.10;;;;;;;34.08;63.17;100716.34;5057104;28;65789;-35
2024/03/03 09:24:31;;;;;;;8.57;7.27;;;;;;;34.11;63.31;100713.13;5047523;28;70505;-32
2024/03/03 09:27:02;;;;;;;14.35;7.55;;;;;;;34.15;63.22;100717.00;5057314;28;66667;-31
2024/03/03 09:29:33;;;;;;;8.87;6.63;;;;;;;34.16;63.28;100718.66;5056754;28;70662;-32
2024/03/03 09:32:04;;;;;;;7.18;6.47;;;;;;;34.18;63.30;100715.66;5056623;28;66938;-34
2024/03/03 09:34:37;;;;;;;10.90;6.95;;;;;;;34.19;63.49;100723.59;5049196;28;70052;-35
2024/03/03 09:37:08;;;;;;;14.00;7.22;;;;;;;34.22;63.35;100723.09;5054442;28;66507;-33
2024/03/03 09:39:39;;;;;;;8.45;6.03;;;;;;;34.20;63.52;100719.81;5057047;28;71192;-32
2024/03/03 09:42:10;;;;;;;11.13;6.03;;;;;;;34.23;63.49;100723.94;5055755;28;65854;-32
2024/03/03 09:44:43;;;;;;;8.83;6.43;;;;;;;34.06;63.48;100691.25;5060168;28;69735;-31
2024/03/03 09:47:16;;;;;;;9.90;6.30;;;;;;;34.26;63.46;100724.25;5058574;28;65757;-31
2024/03/03 09:49:47;;;;;;;8.70;5.80;;;;;;;34.22;63.59;100712.22;5052682;28;70313;-31
2024/03/03 09:52:19;;;;;;;7.00;5.25;;;;;;;34.28;63.64;100723.19;5058913;28;66497;-32
2024/03/03 09:54:50;;;;;;;5.72;5.03;;;;;;;34.30;63.17;100726.47;5060067;28;69683;-30
2024/03/03 09:57:22;;;;;;;9.27;6.22;;;;;;;34.29;63.47;100733.00;5058747;28;66356;-31
2024/03/03 09:59:53;;;;;;;8.80;6.10;;;;;;;34.32;63.77;100732.50;5060174;28;70175;-30
2024/03/03 10:02:24;;;;;;;;;;;;;;;34.20;63.79;100730.69;5060618;28;66631;-32
2024/03/03 10:04:58;;;;;;;10.57;5.68;;;;;;;34.31;63.53;100726.25;5060755;28;69763;-31
2024/03/03 10:07:34;;;;;;;8.93;5.82;;;;;;;34.16;63.29;100705.03;5057451;28;65226;-32
2024/03/03 10:10:10;;;;;;;7.93;6.22;;;;;;;34.29;63.79;100727.56;5056651;28;69406;-34
2024/03/03 10:12:45;;;;;;;7.80;5.10;;;;;;;34.33;63.70;100742.34;5058572;28;65635;-36
2024/03/03 10:15:17;;;;;;;8.60;6.05;;;;;;;34.28;63.93;100736.81;5059801;28;70232;-32
2024/03/03 10:17:48;;;;;;;7.90;5.65;;;;;;;34.36;63.63;100739.94;5049075;28;66635;-32
2024/03/03 10:20:19;;;;;;;8.13;5.57;;;;;;;34.37;63.81;100746.22;5059607;28;71603;-32
2024/03/03 10:22:50;;;;;;;10.30;6.47;;;;;;;34.32;63.97;100748.84;5058887;28;66636;-31
2024/03/03 10:25:23;;;;;;;10.00;6.50;;;;;;;34.32;63.67;100743.41;5061275;28;70006;-32
2024/03/03 10:28:14;;;;;;;9.82;6.28;;;;;;;34.29;63.91;100746.63;5060486;28;66703;-31
2024/03/03 10:30:45;;;;;;;8.30;6.03;;;;;;;34.32;63.70;100744.22;5059692;28;70185;-33
2024/03/03 10:33:19;;;;;;;9.05;5.70;;;;;;;34.30;63.80;100745.53;5059596;28;66374;-34
2024/03/03 10:36:08;;;;;;;8.68;5.90;;;;;;;34.03;64.14;100719.75;5059061;28;69921;-32
2024/03/03 10:38:42;;;;;;;11.27;5.45;;;;;;;34.31;63.68;100752.66;5047042;28;66451;-32
2024/03/03 10:41:13;;;;;;;6.50;5.82;;;;;;;34.30;63.55;100753.69;5057906;28;72272;-30
2024/03/03 10:43:46;;;;;;;8.55;6.32;;;;;;;34.30;63.43;100760.00;5058081;28;66613;-32
2024/03/03 10:46:21;;;;;;;6.25;5.65;;;;;;;34.27;63.53;100768.66;5058081;28;69463;-31
2024/03/03 10:48:54;;;;;;;7.38;5.97;;;;;;;34.30;63.52;100764.59;5059438;28;66228;-33
2024/03/03 10:51:26;;;;;;;8.10;5.43;;;;;;;34.25;63.61;100759.91;5043096;28;70228;-30
2024/03/03 10:54:00;;;;;;;9.23;5.82;;;;;;;34.29;63.61;100765.69;5055483;28;66480;-31
2024/03/03 10:56:32;;;;;;;8.43;6.05;;;;;;;34.28;63.52;100769.47;5060019;28;70302;-32
2024/03/03 10:59:05;;;;;;;5.93;5.43;;;;;;;34.25;63.91;100768.91;5059687;28;66382;-31
2024/03/03 11:01:37;;;;;;;10.93;6.22;;;;;;;34.22;63.67;100772.13;5060533;28;69998;-33
2024/03/03 11:04:12;;;;;;;8.32;6.00;;;;;;;34.17;64.01;100766.56;5057052;28;65229;-31
2024/03/03 11:06:45;;;;;;;7.57;5.88;;;;;;;34.19;63.70;100783.50;5049254;28;69392;-31
2024/03/03 11:09:17;;;;;;;13.13;6.50;;;;;;;34.19;63.97;100788.13;5059903;28;66333;-32
2024/03/03 11:12:01;;;;;;;7.35;6.05;;;;;;;34.04;63.74;100758.69;5060262;28;69987;-31
2024/03/03 11:14:39;;;;;;;8.15;5.78;;;;;;;33.96;64.31;100765.38;5057066;28;66119;-31
2024/03/03 11:17:19;;;;;;;9.98;6.45;;;;;;;34.09;64.54;100794.19;5059397;28;70219;-30
2024/03/03 11:19:52;;;;;;;7.57;5.80;;;;;;;34.09;64.43;100793.38;5046648;28;66753;-31
2024/03/03 11:22:24;;;;;;;6.70;5.93;;;;;;;33.89;64.25;100763.88;5056348;28;69580;-30
2024/03/03 11:25:05;;;;;;;8.10;5.80;;;;;;;33.84;64.35;100758.31;5052842;28;66033;-31
2024/03/03 11:27:39;;;;;;;8.20;6.70;;;;;;;34.03;64.22;100789.69;5058398;28;70003;-31
2024/03/03 11:30:11;;;;;;;10.43;6.30;;;;;;;34.01;64.38;100786.38;5057887;28;66270;-32
2024/03/03 11:32:43;;;;;;;8.02;6.65;;;;;;;33.92;64.52;100779.69;5058669;28;70061;-29
2024/03/03 11:35:15;;;;;;;8.20;6.10;;;;;;;33.98;64.56;100797.78;5058254;28;65441;-30